createdAt,value
2018-01-25T00:01:26.069Z,47.64
2018-01-25T00:03:51.873Z,47.87
2018-01-25T00:06:17.682Z,47.82
2018-01-25T00:08:43.492Z,47.48
2018-01-25T00:11:09.336Z,47.52
2018-01-25T00:13:35.177Z,47.56
2018-01-25T00:16:01.030Z,47.73
2018-01-25T00:18:26.842Z,47.73
2018-01-25T00:20:52.706Z,47.72
2018-01-25T00:23:18.509Z,47.14
2018-01-25T00:25:44.369Z,47.37
2018-01-25T00:28:10.209Z,47.42
2018-01-25T00:30:36.019Z,46.95
2018-01-25T00:33:01.826Z,47.32
2018-01-25T00:35:27.637Z,47.18
2018-01-25T00:37:53.444Z,47.08
2018-01-25T00:40:19.273Z,47.08
2018-01-25T00:42:45.082Z,47.53
2018-01-25T00:45:10.894Z,47.30
2018-01-25T00:47:36.698Z,47.71
2018-01-25T00:50:02.548Z,47.60
2018-01-25T00:52:28.353Z,47.80
2018-01-25T00:54:54.185Z,47.65
2018-01-25T00:57:19.988Z,47.80
2018-01-25T00:59:45.832Z,48.18
2018-01-25T01:02:11.650Z,48.18
2018-01-25T01:04:37.500Z,48.18
2018-01-25T01:07:03.314Z,48.20
2018-01-25T01:09:29.134Z,48.33
2018-01-25T01:11:54.946Z,47.85
2018-01-25T01:14:20.762Z,48.12
2018-01-25T01:16:46.574Z,47.98
2018-01-25T01:19:12.422Z,47.98
2018-01-25T01:21:38.274Z,48.08
2018-01-25T01:24:04.091Z,48.01
2018-01-25T01:26:29.893Z,47.96
2018-01-25T01:28:55.702Z,48.35
2018-01-25T01:31:21.517Z,47.87
2018-01-25T01:33:47.328Z,47.97
2018-01-25T01:36:13.130Z,48.26
2018-01-25T01:38:38.934Z,47.85
2018-01-25T01:41:04.743Z,48.45
2018-01-25T01:43:30.558Z,48.32
2018-01-25T01:45:56.383Z,48.22
2018-01-25T01:48:22.197Z,48.58
2018-01-25T01:50:48.018Z,47.83
2018-01-25T01:53:13.862Z,48.49
2018-01-25T01:55:39.665Z,48.23
2018-01-25T01:58:05.475Z,48.32
2018-01-25T02:00:31.313Z,48.29
2018-01-25T02:02:57.120Z,48.71
2018-01-25T02:05:22.922Z,48.71
2018-01-25T02:07:49.049Z,47.93
2018-01-25T02:10:14.861Z,48.26
2018-01-25T02:12:40.669Z,48.47
2018-01-25T02:15:06.484Z,48.68
2018-01-25T02:17:32.294Z,47.67
2018-01-25T02:19:58.137Z,48.34
2018-01-25T02:22:23.985Z,48.50
2018-01-25T02:24:49.843Z,48.66
2018-01-25T02:27:15.685Z,48.42
2018-01-25T02:29:41.543Z,48.45
2018-01-25T02:32:07.427Z,48.01
2018-01-25T02:34:33.229Z,47.55
2018-01-25T02:36:59.044Z,47.30
2018-01-25T02:39:24.841Z,46.71
2018-01-25T02:41:50.662Z,46.36
2018-01-25T02:44:16.438Z,47.00
2018-01-25T02:46:42.294Z,46.48
2018-01-25T02:49:08.078Z,46.86
2018-01-25T02:51:33.846Z,47.60
2018-01-25T02:53:59.625Z,47.25
2018-01-25T02:56:25.401Z,47.55
2018-01-25T02:58:51.225Z,47.03
2018-01-25T03:01:17.033Z,47.34
2018-01-25T03:03:42.805Z,47.67
2018-01-25T03:06:08.582Z,47.15
2018-01-25T03:08:34.366Z,47.87
2018-01-25T03:11:00.301Z,47.97
2018-01-25T03:13:26.097Z,47.84
2018-01-25T03:15:51.868Z,47.40
2018-01-25T03:18:17.682Z,48.00
2018-01-25T03:20:43.469Z,47.46
2018-01-25T03:23:09.281Z,47.96
2018-01-25T03:25:35.100Z,48.01
2018-01-25T03:28:00.998Z,47.53
2018-01-25T03:30:26.809Z,47.96
2018-01-25T03:32:52.586Z,48.14
2018-01-25T03:35:18.368Z,48.25
2018-01-25T03:37:45.168Z,48.42
2018-01-25T03:40:11.009Z,48.17
2018-01-25T03:42:36.790Z,47.94
2018-01-25T03:45:02.624Z,47.57
2018-01-25T03:47:28.470Z,48.05
2018-01-25T03:49:54.250Z,48.02
2018-01-25T03:52:20.033Z,47.97
2018-01-25T03:54:45.805Z,48.11
2018-01-25T03:57:11.586Z,47.84
2018-01-25T03:59:37.401Z,47.85
2018-01-25T04:02:03.229Z,48.23
2018-01-25T04:04:29.009Z,48.14
2018-01-25T04:06:54.790Z,48.48
2018-01-25T04:09:20.576Z,47.62
2018-01-25T04:11:46.357Z,48.07
2018-01-25T04:14:12.214Z,47.97
2018-01-25T04:16:37.998Z,48.08
2018-01-25T04:19:03.825Z,47.84
2018-01-25T04:21:29.656Z,47.87
2018-01-25T04:23:55.569Z,47.94
2018-01-25T04:26:21.342Z,47.83
2018-01-25T04:28:47.150Z,47.60
2018-01-25T04:31:13.027Z,48.14
2018-01-25T04:33:38.856Z,47.71
2018-01-25T04:36:04.676Z,47.47
2018-01-25T04:38:30.580Z,47.08
2018-01-25T04:40:56.359Z,46.55
2018-01-25T04:43:22.309Z,46.80
2018-01-25T04:45:48.090Z,46.93
2018-01-25T04:48:13.979Z,46.77
2018-01-25T04:50:39.830Z,47.60
2018-01-25T04:53:05.610Z,47.61
2018-01-25T04:55:31.545Z,47.64
2018-01-25T04:57:57.317Z,47.24
2018-01-25T05:00:23.172Z,46.84
2018-01-25T05:02:48.953Z,47.08
2018-01-25T05:05:14.777Z,46.87
2018-01-25T05:07:40.734Z,47.62
2018-01-25T05:10:06.513Z,47.32
2018-01-25T05:12:32.489Z,47.90
2018-01-25T05:14:58.269Z,47.87
2018-01-25T05:17:24.874Z,47.61
2018-01-25T05:19:50.863Z,47.87
2018-01-25T05:22:16.713Z,47.48
2018-01-25T05:24:42.709Z,47.68
2018-01-25T05:27:08.510Z,47.92
2018-01-25T05:29:34.289Z,47.43
2018-01-25T05:32:00.174Z,47.86
2018-01-25T05:34:26.027Z,47.81
2018-01-25T05:36:51.927Z,47.86
2018-01-25T05:39:17.727Z,47.73
2018-01-25T05:41:43.548Z,48.29
2018-01-25T05:44:09.373Z,47.86
2018-01-25T05:46:35.194Z,47.94
2018-01-25T05:49:02.048Z,48.07
2018-01-25T05:51:27.869Z,48.17
2018-01-25T05:53:53.702Z,47.93
2018-01-25T05:56:19.538Z,47.89
2018-01-25T05:58:45.326Z,48.17
2018-01-25T06:01:11.161Z,47.69
2018-01-25T06:03:36.954Z,48.07
2018-01-25T06:06:02.758Z,47.78
2018-01-25T06:08:28.542Z,47.57
2018-01-25T06:10:54.346Z,46.41
2018-01-25T06:13:20.178Z,46.40
2018-01-25T06:15:45.987Z,47.00
2018-01-25T06:18:11.819Z,46.93
2018-01-25T06:20:38.735Z,47.55
2018-01-25T06:23:04.622Z,47.49
2018-01-25T06:25:30.566Z,47.63
2018-01-25T06:27:56.401Z,47.34
2018-01-25T06:30:22.202Z,47.57
2018-01-25T06:32:49.101Z,47.62
2018-01-25T06:35:14.928Z,47.98
2018-01-25T06:37:40.770Z,48.17
2018-01-25T06:40:06.584Z,48.33
2018-01-25T06:42:32.414Z,47.69
2018-01-25T06:44:58.245Z,47.94
2018-01-25T06:47:24.037Z,47.90
2018-01-25T06:49:49.868Z,47.96
2018-01-25T06:52:15.662Z,47.84
2018-01-25T06:54:41.446Z,48.08
2018-01-25T06:57:07.358Z,48.21
2018-01-25T06:59:33.313Z,47.93
2018-01-25T07:01:59.179Z,48.14
2018-01-25T07:04:25.108Z,48.08
2018-01-25T07:06:51.033Z,48.06
2018-01-25T07:09:16.814Z,48.35
2018-01-25T07:11:42.813Z,48.21
2018-01-25T07:14:08.615Z,48.17
2018-01-25T07:16:34.442Z,47.84
2018-01-25T07:19:00.229Z,48.11
2018-01-25T07:21:26.058Z,47.44
2018-01-25T07:23:51.977Z,46.89
2018-01-25T07:26:17.804Z,46.47
2018-01-25T07:28:43.652Z,46.42
2018-01-25T07:31:09.454Z,46.54
2018-01-25T07:33:35.289Z,46.91
2018-01-25T07:36:01.086Z,46.72
2018-01-25T07:38:27.009Z,46.97
2018-01-25T07:40:52.813Z,46.96
2018-01-25T07:43:18.633Z,46.65
2018-01-25T07:45:44.421Z,46.65
2018-01-25T07:48:10.242Z,46.83
2018-01-25T07:50:36.061Z,46.84
2018-01-25T07:53:10.130Z,47.04
2018-01-25T07:55:42.984Z,48.04
2018-01-25T08:01:00.403Z,47.52
2018-01-25T08:03:27.054Z,47.49
2018-01-25T08:05:52.861Z,47.83
2018-01-25T08:08:18.686Z,47.39
2018-01-25T08:10:44.558Z,48.41
2018-01-25T08:13:16.479Z,48.18
2018-01-25T08:15:42.375Z,47.98
2018-01-25T08:18:08.327Z,47.48
2018-01-25T08:20:34.267Z,47.29
2018-01-25T08:23:00.346Z,48.09
2018-01-25T08:25:26.169Z,48.40
2018-01-25T08:27:51.965Z,48.32
2018-01-25T08:30:17.805Z,48.00
2018-01-25T08:32:43.626Z,47.43
2018-01-25T08:35:09.422Z,47.05
2018-01-25T08:37:35.218Z,46.83
2018-01-25T08:40:01.010Z,46.69
2018-01-25T08:42:26.933Z,46.76
2018-01-25T08:44:52.724Z,46.66
2018-01-25T08:47:18.514Z,46.82
2018-01-25T08:49:44.314Z,47.30
2018-01-25T08:52:10.138Z,47.38
2018-01-25T08:54:35.962Z,47.76
2018-01-25T08:57:01.758Z,47.25
2018-01-25T08:59:27.581Z,47.89
2018-01-25T09:01:53.383Z,47.92
2018-01-25T09:04:19.173Z,47.57
2018-01-25T09:06:44.956Z,48.41
2018-01-25T09:09:10.757Z,48.34
2018-01-25T09:11:36.613Z,48.27
2018-01-25T09:14:02.401Z,47.64
2018-01-25T09:16:28.246Z,47.55
2018-01-25T09:18:54.071Z,47.33
2018-01-25T09:21:19.857Z,47.60
2018-01-25T09:23:45.701Z,47.73
2018-01-25T09:26:11.490Z,47.40
2018-01-25T09:28:37.272Z,47.54
2018-01-25T09:31:03.076Z,47.22
2018-01-25T09:33:28.869Z,47.60
2018-01-25T09:35:54.657Z,47.72
2018-01-25T09:38:20.462Z,47.63
2018-01-25T09:40:46.249Z,47.58
2018-01-25T09:43:12.045Z,48.09
2018-01-25T09:45:37.830Z,48.42
2018-01-25T09:48:03.645Z,48.26
2018-01-25T09:50:29.430Z,47.95
2018-01-25T09:52:55.309Z,48.63
2018-01-25T09:55:21.093Z,48.14
2018-01-25T09:57:46.929Z,47.36
2018-01-25T10:00:12.899Z,47.23
2018-01-25T10:02:38.689Z,47.33
2018-01-25T10:05:04.484Z,47.45
2018-01-25T10:07:30.273Z,47.50
2018-01-25T10:09:56.110Z,47.39
2018-01-25T10:12:21.936Z,47.23
2018-01-25T10:14:47.762Z,47.33
2018-01-25T10:17:13.549Z,47.28
2018-01-25T10:19:39.386Z,47.44
2018-01-25T10:22:05.227Z,47.24
2018-01-25T10:24:31.014Z,47.30
2018-01-25T10:26:56.805Z,47.89
2018-01-25T10:29:22.596Z,47.49
2018-01-25T10:31:48.421Z,48.23
2018-01-25T10:34:14.216Z,48.45
2018-01-25T10:36:40.063Z,48.09
2018-01-25T10:39:05.856Z,48.25
2018-01-25T10:41:31.761Z,48.77
2018-01-25T10:43:57.557Z,48.88
2018-01-25T10:46:23.381Z,48.61
2018-01-25T10:48:49.183Z,49.18
2018-01-25T10:51:15.014Z,48.91
2018-01-25T10:53:40.802Z,49.03
2018-01-25T10:56:06.595Z,48.36
2018-01-25T10:58:32.413Z,48.37
2018-01-25T11:01:04.278Z,48.64
2018-01-25T11:03:30.141Z,49.75
2018-01-25T11:05:55.927Z,49.63
2018-01-25T11:08:21.710Z,49.56
2018-01-25T11:10:47.508Z,48.80
2018-01-25T11:13:13.294Z,49.57
2018-01-25T11:15:39.077Z,49.30
2018-01-25T11:18:04.894Z,48.64
2018-01-25T11:20:30.686Z,49.09
2018-01-25T11:22:56.514Z,48.90
2018-01-25T11:25:22.293Z,49.00
2018-01-25T11:27:48.122Z,49.38
2018-01-25T11:30:13.950Z,48.95
2018-01-25T11:32:39.733Z,48.54
2018-01-25T11:35:05.525Z,48.79
2018-01-25T11:37:31.372Z,48.33
2018-01-25T11:39:57.162Z,48.09
2018-01-25T11:42:22.945Z,48.52
2018-01-25T11:44:48.733Z,48.85
2018-01-25T11:47:14.533Z,48.84
2018-01-25T11:49:40.362Z,48.57
2018-01-25T11:52:06.151Z,48.74
2018-01-25T11:54:31.982Z,49.11
2018-01-25T11:56:57.761Z,48.80
2018-01-25T11:59:23.543Z,49.30
2018-01-25T12:01:49.362Z,49.03
2018-01-25T12:04:15.214Z,49.35
2018-01-25T12:06:41.000Z,49.86
2018-01-25T12:09:06.783Z,50.11
2018-01-25T12:11:32.569Z,49.94
2018-01-25T12:13:58.358Z,49.46
2018-01-25T12:16:24.138Z,49.59
2018-01-25T12:18:49.937Z,49.35
2018-01-25T12:21:15.765Z,49.53
2018-01-25T12:23:41.550Z,49.56
2018-01-25T12:26:14.314Z,49.81
2018-01-25T12:28:40.102Z,50.01
2018-01-25T12:31:05.974Z,49.62
2018-01-25T12:33:31.757Z,49.63
2018-01-25T12:35:57.617Z,49.64
2018-01-25T12:38:23.449Z,49.64
2018-01-25T12:40:49.333Z,50.01
2018-01-25T12:43:15.156Z,50.15
2018-01-25T12:45:40.965Z,50.18
2018-01-25T12:48:06.917Z,50.00
2018-01-25T12:50:32.705Z,49.98
2018-01-25T12:52:58.709Z,49.75
2018-01-25T12:55:24.492Z,48.88
2018-01-25T12:57:50.278Z,49.54
2018-01-25T13:00:16.069Z,50.38
2018-01-25T13:02:41.860Z,50.27
2018-01-25T13:05:07.709Z,50.12
2018-01-25T13:07:33.496Z,50.02
2018-01-25T13:09:59.338Z,50.05
2018-01-25T13:12:25.129Z,50.04
2018-01-25T13:14:50.928Z,50.32
2018-01-25T13:17:16.722Z,49.78
2018-01-25T13:19:42.531Z,49.89
2018-01-25T13:22:08.333Z,49.82
2018-01-25T13:24:34.116Z,50.28
2018-01-25T13:26:59.905Z,50.04
2018-01-25T13:29:25.702Z,50.59
2018-01-25T13:31:51.493Z,50.08
2018-01-25T13:34:17.284Z,49.41
2018-01-25T13:36:43.065Z,49.19
2018-01-25T13:39:08.852Z,49.15
2018-01-25T13:41:34.676Z,49.10
2018-01-25T13:44:00.498Z,49.57
2018-01-25T13:46:26.289Z,49.00
2018-01-25T13:48:52.110Z,49.70
2018-01-25T13:51:17.897Z,49.84
2018-01-25T13:53:43.864Z,49.51
2018-01-25T13:56:09.677Z,49.19
2018-01-25T13:58:35.506Z,49.54
2018-01-25T14:01:01.291Z,49.67
2018-01-25T14:03:27.086Z,49.55
2018-01-25T14:05:52.913Z,49.68
2018-01-25T14:08:18.694Z,49.94
2018-01-25T14:10:44.523Z,50.29
2018-01-25T14:13:10.334Z,50.25
2018-01-25T14:15:36.161Z,50.20
2018-01-25T14:18:02.098Z,50.27
2018-01-25T14:20:27.897Z,50.52
2018-01-25T14:22:53.681Z,50.32
2018-01-25T14:25:19.472Z,50.40
2018-01-25T14:27:45.261Z,50.46
2018-01-25T14:30:11.085Z,50.58
2018-01-25T14:32:37.888Z,50.59
2018-01-25T14:35:03.706Z,50.51
2018-01-25T14:37:29.487Z,50.46
2018-01-25T14:39:55.405Z,50.04
2018-01-25T14:42:21.198Z,50.38
2018-01-25T14:44:47.071Z,50.43
2018-01-25T14:47:12.858Z,50.19
2018-01-25T14:49:38.641Z,50.47
2018-01-25T14:52:04.475Z,50.58
2018-01-25T14:54:30.266Z,50.44
2018-01-25T14:56:56.155Z,50.46
2018-01-25T14:59:21.953Z,50.82
2018-01-25T15:01:47.742Z,50.90
2018-01-25T15:04:13.522Z,50.59
2018-01-25T15:06:39.305Z,51.00
2018-01-25T15:09:05.102Z,50.47
2018-01-25T15:11:30.889Z,50.61
2018-01-25T15:13:56.690Z,50.65
2018-01-25T15:16:22.469Z,50.59
2018-01-25T15:18:48.300Z,50.71
2018-01-25T15:21:14.092Z,50.83
2018-01-25T15:23:39.874Z,50.96
2018-01-25T15:26:05.681Z,50.94
2018-01-25T15:28:31.470Z,51.10
2018-01-25T15:31:00.243Z,50.83
2018-01-25T15:33:26.059Z,50.97
2018-01-25T15:35:51.876Z,50.99
2018-01-25T15:38:17.657Z,51.30
2018-01-25T15:40:43.472Z,51.05
2018-01-25T15:43:09.262Z,50.88
2018-01-25T15:45:35.160Z,51.08
2018-01-25T15:48:00.946Z,51.01
2018-01-25T15:50:26.749Z,51.04
2018-01-25T15:52:52.518Z,50.86
2018-01-25T15:55:18.289Z,50.92
2018-01-25T15:57:44.065Z,51.26
2018-01-25T16:00:09.898Z,50.62
2018-01-25T16:02:35.673Z,51.14
2018-01-25T16:05:01.482Z,50.78
2018-01-25T16:07:27.392Z,50.53
2018-01-25T16:09:53.183Z,50.79
2018-01-25T16:12:18.965Z,50.71
2018-01-25T16:14:44.764Z,50.96
2018-01-25T16:17:10.550Z,51.07
2018-01-25T16:19:36.386Z,51.27
2018-01-25T16:22:02.170Z,50.71
2018-01-25T16:24:28.033Z,50.73
2018-01-25T16:26:53.813Z,50.71
2018-01-25T16:29:19.599Z,50.88
2018-01-25T16:31:45.388Z,50.51
2018-01-25T16:34:11.177Z,50.60
2018-01-25T16:36:36.965Z,50.79
2018-01-25T16:39:02.900Z,50.86
2018-01-25T16:41:28.888Z,51.19
2018-01-25T16:43:54.678Z,51.20
2018-01-25T16:46:20.458Z,51.08
2018-01-25T16:48:46.288Z,50.84
2018-01-25T16:51:12.073Z,51.17
2018-01-25T16:53:37.870Z,51.20
2018-01-25T16:56:03.687Z,51.22
2018-01-25T16:58:29.526Z,51.40
2018-01-25T17:00:55.341Z,50.89
2018-01-25T17:03:21.164Z,51.01
2018-01-25T17:05:47.019Z,51.69
2018-01-25T17:08:12.871Z,51.38
2018-01-25T17:10:38.666Z,51.29
2018-01-25T17:13:04.466Z,51.13
2018-01-25T17:15:30.306Z,51.34
2018-01-25T17:17:56.277Z,51.46
2018-01-25T17:20:22.074Z,51.37
2018-01-25T17:22:47.950Z,51.20
2018-01-25T17:25:13.765Z,51.17
2018-01-25T17:27:39.573Z,51.38
2018-01-25T17:30:05.397Z,51.28
2018-01-25T17:32:31.215Z,51.01
2018-01-25T17:34:56.988Z,51.30
2018-01-25T17:37:22.766Z,50.85
2018-01-25T17:39:48.552Z,51.19
2018-01-25T17:42:14.369Z,51.33
2018-01-25T17:44:40.146Z,50.97
2018-01-25T17:47:05.966Z,50.74
2018-01-25T17:49:31.750Z,50.82
2018-01-25T17:51:57.591Z,51.17
2018-01-25T17:54:23.374Z,50.77
2018-01-25T17:56:49.160Z,50.80
2018-01-25T17:59:14.930Z,50.74
2018-01-25T18:01:40.921Z,50.63
2018-01-25T18:04:06.719Z,50.81
2018-01-25T18:06:32.501Z,51.02
2018-01-25T18:08:58.331Z,51.03
2018-01-25T18:11:24.106Z,51.03
2018-01-25T18:13:49.953Z,51.10
2018-01-25T18:16:15.729Z,50.94
2018-01-25T18:18:41.557Z,50.88
2018-01-25T18:21:07.337Z,51.13
2018-01-25T18:23:33.159Z,51.06
2018-01-25T18:25:58.942Z,51.15
2018-01-25T18:28:24.777Z,51.01
2018-01-25T18:30:50.558Z,51.27
2018-01-25T18:33:16.354Z,50.83
2018-01-25T18:35:42.202Z,51.08
2018-01-25T18:38:07.986Z,50.80
2018-01-25T18:40:33.781Z,50.93
2018-01-25T18:43:00.368Z,51.00
2018-01-25T18:45:26.160Z,50.86
2018-01-25T18:47:51.955Z,51.27
2018-01-25T18:50:17.750Z,50.92
2018-01-25T18:52:43.539Z,51.28
2018-01-25T18:55:09.378Z,51.19
2018-01-25T18:57:35.445Z,50.97
2018-01-25T19:00:01.243Z,50.78
2018-01-25T19:02:27.127Z,50.65
2018-01-25T19:04:52.910Z,51.04
2018-01-25T19:07:18.931Z,50.93
2018-01-25T19:09:44.760Z,51.01
2018-01-25T19:12:10.617Z,50.67
2018-01-25T19:14:36.446Z,50.92
2018-01-25T19:17:02.374Z,50.90
2018-01-25T19:19:28.614Z,50.92
2018-01-25T19:21:55.384Z,50.88
2018-01-25T19:24:21.242Z,51.14
2018-01-25T19:26:47.172Z,50.75
2018-01-25T19:29:13.145Z,50.90
2018-01-25T19:31:39.022Z,50.94
2018-01-25T19:34:04.823Z,51.24
2018-01-25T19:36:30.618Z,51.13
2018-01-25T19:38:56.418Z,50.96
2018-01-25T19:41:22.403Z,50.92
2018-01-25T19:43:49.174Z,51.10
2018-01-25T19:46:14.975Z,51.49
2018-01-25T19:48:40.763Z,51.48
2018-01-25T19:51:06.557Z,51.28
2018-01-25T19:53:32.338Z,51.32
2018-01-25T19:55:58.299Z,51.40
2018-01-25T19:58:24.080Z,51.37
2018-01-25T20:00:49.863Z,51.75
2018-01-25T20:03:15.655Z,52.06
2018-01-25T20:05:41.440Z,51.66
2018-01-25T20:08:07.305Z,53.24
2018-01-25T20:10:33.077Z,53.32
2018-01-25T20:12:58.862Z,53.62
2018-01-25T20:15:24.645Z,52.93
2018-01-25T20:17:50.453Z,52.81
2018-01-25T20:20:16.231Z,52.75
2018-01-25T20:22:42.043Z,52.23
2018-01-25T20:25:07.950Z,51.80
2018-01-25T20:27:33.738Z,51.65
2018-01-25T20:29:59.624Z,51.68
2018-01-25T20:32:25.413Z,51.49
2018-01-25T20:34:51.201Z,51.45
2018-01-25T20:37:17.054Z,51.65
2018-01-25T20:39:42.833Z,51.39
2018-01-25T20:42:08.653Z,51.84
2018-01-25T20:44:34.478Z,51.95
2018-01-25T20:47:00.265Z,51.77
2018-01-25T20:49:26.086Z,51.22
2018-01-25T20:51:51.921Z,51.60
2018-01-25T20:54:17.746Z,51.51
2018-01-25T20:56:43.562Z,51.55
2018-01-25T20:59:09.382Z,51.56
2018-01-25T21:01:35.171Z,51.53
2018-01-25T21:04:00.997Z,51.27
2018-01-25T21:06:26.777Z,51.71
2018-01-25T21:08:52.673Z,51.26
2018-01-25T21:11:18.455Z,51.40
2018-01-25T21:13:44.281Z,51.13
2018-01-25T21:16:10.126Z,51.21
2018-01-25T21:18:35.912Z,51.43
2018-01-25T21:21:01.685Z,51.70
2018-01-25T21:23:27.484Z,51.67
2018-01-25T21:25:53.274Z,51.68
2018-01-25T21:28:19.066Z,51.83
2018-01-25T21:30:44.889Z,51.50
2018-01-25T21:33:10.708Z,51.48
2018-01-25T21:35:36.484Z,51.29
2018-01-25T21:38:02.302Z,51.37
2018-01-25T21:40:28.086Z,51.37
2018-01-25T21:42:53.916Z,51.46
2018-01-25T21:45:19.709Z,51.43
2018-01-25T21:47:45.796Z,51.62
2018-01-25T21:50:11.753Z,51.61
2018-01-25T21:52:37.528Z,51.55
2018-01-25T21:55:03.326Z,51.39
2018-01-25T21:57:29.105Z,51.44
2018-01-25T21:59:54.929Z,51.53
2018-01-25T22:02:21.621Z,51.38
2018-01-25T22:04:47.405Z,51.57
2018-01-25T22:07:13.210Z,51.45
2018-01-25T22:09:39.025Z,51.72
2018-01-25T22:12:04.809Z,51.83
2018-01-25T22:14:30.661Z,51.53
2018-01-25T22:16:56.445Z,51.52
2018-01-25T22:19:22.284Z,51.47
2018-01-25T22:21:48.063Z,51.47
2018-01-25T22:24:13.878Z,51.51
2018-01-25T22:29:05.360Z,51.42
2018-01-25T22:31:31.141Z,51.55
2018-01-25T22:33:56.927Z,51.56
2018-01-25T22:36:22.701Z,51.73
2018-01-25T22:38:48.528Z,51.45
2018-01-25T22:41:14.309Z,51.48
2018-01-25T22:43:40.127Z,51.76
2018-01-25T22:46:05.932Z,51.75
2018-01-25T22:48:31.744Z,51.27
2018-01-25T22:50:57.564Z,51.62
2018-01-25T22:53:23.339Z,51.79
2018-01-25T22:55:49.127Z,51.70
2018-01-25T22:58:15.018Z,51.84
2018-01-25T23:00:40.832Z,51.48
2018-01-25T23:03:06.624Z,51.82
2018-01-25T23:05:32.396Z,52.10
2018-01-25T23:07:58.172Z,51.93
2018-01-25T23:10:23.963Z,51.71
2018-01-25T23:12:49.746Z,51.61
2018-01-25T23:15:15.531Z,51.49
2018-01-25T23:17:41.324Z,51.59
2018-01-25T23:20:07.109Z,51.35
2018-01-25T23:22:32.899Z,52.02
2018-01-25T23:24:58.713Z,51.76
2018-01-25T23:27:24.501Z,51.74
2018-01-25T23:29:50.303Z,51.56
2018-01-25T23:32:16.071Z,51.49
2018-01-25T23:34:41.875Z,51.65
2018-01-25T23:37:07.816Z,51.39
2018-01-25T23:39:33.634Z,51.68
2018-01-25T23:41:59.555Z,51.70
2018-01-25T23:44:25.372Z,51.55
2018-01-25T23:46:51.192Z,51.38
2018-01-25T23:49:17.002Z,51.30
2018-01-25T23:51:42.822Z,51.25
2018-01-25T23:54:08.641Z,51.35
2018-01-25T23:56:34.451Z,51.44
2018-01-25T23:59:00.273Z,51.82
